Airfield :
LOGIN :

Register | Disclaimer

   EN    FR    IT 

 










Legend :    VFR   Marginal VFR   IFR   Intensive IFR   Very Intensive IFR
Visi :
Ceiling :
>= 8 km
>= 3000ft
5 to 8 km
1000 to 3000 ft
1500m to 5 km
500 to 1000 ft
800 to 1500m
200 to 500 ft
< 800m
< 200 ft
Symbols :   Thunderstorms  Fog  Heavy snow  Heavy precipitations  Wind > 20 kt
SIGMETs :     Misc.  Thunderstorms  Icing  Turbulence  Mountain Waves  Volcanic Ashes







- Airport Elevation : 274 ft
- IATA code : PUY


LDPL - Pula

CURRENT METAR :
  • 210200Z 08004KT CAVOK 20/19 Q1018 NOSIG

EXPIRED METARs :
  • 210130Z 08005KT CAVOK 20/19 Q1019
  • 210100Z 08006KT CAVOK 21/20 Q1019
  • 210030Z 09005KT CAVOK 21/20 Q1019
  • 210000Z 09004KT CAVOK 21/20 Q1019
  • 202330Z 08004KT CAVOK 20/19 Q1019
  • 202300Z 08004KT CAVOK 20/20 Q1019

TAF TAF LDPL
Valid from the 21 at 00:00 until the 22 at 00:00 UTC


202325Z 2100/2200 VRB02KT CAVOK TX30/2113Z TN18/2103Z
TEMPO 2111/2116 27008KT
No reported NOTAMs for that airfield.



MET'MAP, your aeronautical weather chart ! - Copyright ORBIFLY December 2007 - Disclaimer

ORBIFLY MET'MAP TEAM :

Programming & Development : Alexandra Zaïnal
Concept & Development : Baudouin d'Aumeries
Co-Development & Prog : Marc-Olivier Méhu
Technical & hardware support : Manuel Goepfert

Contact : metmap@orbifly.com




SOURCES & CREDITS :

   NOAA